Terminal Aerodrome Forecast
Issued by NWS Wakefield, VA

Home | Current Version | Previous Version | Text Only | Print | Product List | Glossary On
Versions: 1 2 3 4 5 6 7 8 9 10 11 12 13 14 15 16 17 18 19
000
FTUS41 KAKQ 281700
TAFECG
TAF
KECG 281733Z 2818/2918 34010G18KT P6SM SKC
     FM282100 34007KT P6SM SKC
     FM290600 34004KT P6SM SKC
     FM291500 04004KT P6SM SCT250=

USA.gov is the U.S. government's official web portal to all federal, state and local government web resources and services.